sensor_id;sensor_type;location;lat;lon;timestamp;P1;durP1;ratioP1;P2;durP2;ratioP2
1475;SDS011;730;48.870;12.542;2023-08-24T00:01:25;7.47;;;6.80;;
1475;SDS011;730;48.870;12.542;2023-08-24T00:03:51;5.73;;;5.33;;
1475;SDS011;730;48.870;12.542;2023-08-24T00:06:18;6.87;;;6.27;;
1475;SDS011;730;48.870;12.542;2023-08-24T00:08:44;7.17;;;6.67;;
1475;SDS011;730;48.870;12.542;2023-08-24T00:11:10;6.10;;;5.70;;
1475;SDS011;730;48.870;12.542;2023-08-24T00:13:43;6.57;;;6.07;;
1475;SDS011;730;48.870;12.542;2023-08-24T00:16:17;7.27;;;6.70;;
1475;SDS011;730;48.870;12.542;2023-08-24T00:18:45;7.20;;;6.50;;
1475;SDS011;730;48.870;12.542;2023-08-24T00:21:15;6.27;;;5.77;;
1475;SDS011;730;48.870;12.542;2023-08-24T00:23:48;7.30;;;6.70;;
1475;SDS011;730;48.870;12.542;2023-08-24T00:26:15;6.67;;;6.17;;
1475;SDS011;730;48.870;12.542;2023-08-24T00:28:44;7.50;;;6.87;;
1475;SDS011;730;48.870;12.542;2023-08-24T00:31:11;6.70;;;5.70;;
1475;SDS011;730;48.870;12.542;2023-08-24T00:33:37;7.13;;;6.50;;
1475;SDS011;730;48.870;12.542;2023-08-24T00:36:04;7.70;;;7.10;;
1475;SDS011;730;48.870;12.542;2023-08-24T00:38:31;7.13;;;6.43;;
1475;SDS011;730;48.870;12.542;2023-08-24T00:40:57;7.03;;;6.50;;
1475;SDS011;730;48.870;12.542;2023-08-24T00:43:25;7.47;;;6.63;;
1475;SDS011;730;48.870;12.542;2023-08-24T00:45:51;6.90;;;6.40;;
1475;SDS011;730;48.870;12.542;2023-08-24T00:48:19;7.57;;;6.37;;
1475;SDS011;730;48.870;12.542;2023-08-24T00:50:46;7.20;;;6.57;;
1475;SDS011;730;48.870;12.542;2023-08-24T00:53:12;7.07;;;6.47;;
1475;SDS011;730;48.870;12.542;2023-08-24T00:55:39;7.23;;;6.63;;
1475;SDS011;730;48.870;12.542;2023-08-24T00:58:05;7.20;;;6.63;;
1475;SDS011;730;48.870;12.542;2023-08-24T01:00:31;8.90;;;7.17;;
1475;SDS011;730;48.870;12.542;2023-08-24T01:02:58;7.63;;;6.93;;
1475;SDS011;730;48.870;12.542;2023-08-24T01:05:24;7.90;;;7.13;;
1475;SDS011;730;48.870;12.542;2023-08-24T01:07:50;8.33;;;7.43;;
1475;SDS011;730;48.870;12.542;2023-08-24T01:10:16;8.03;;;7.23;;
1475;SDS011;730;48.870;12.542;2023-08-24T01:18:10;7.60;;;6.40;;
1475;SDS011;730;48.870;12.542;2023-08-24T01:20:40;7.00;;;6.50;;
1475;SDS011;730;48.870;12.542;2023-08-24T01:23:21;7.60;;;7.07;;
1475;SDS011;730;48.870;12.542;2023-08-24T01:26:06;7.37;;;6.27;;
1475;SDS011;730;48.870;12.542;2023-08-24T01:28:33;7.50;;;6.90;;
1475;SDS011;730;48.870;12.542;2023-08-24T01:30:59;7.73;;;7.13;;
1475;SDS011;730;48.870;12.542;2023-08-24T01:33:25;7.00;;;6.40;;
1475;SDS011;730;48.870;12.542;2023-08-24T01:35:51;8.00;;;7.23;;
1475;SDS011;730;48.870;12.542;2023-08-24T01:38:17;7.70;;;7.03;;
1475;SDS011;730;48.870;12.542;2023-08-24T01:41:06;8.03;;;7.43;;
1475;SDS011;730;48.870;12.542;2023-08-24T01:43:32;7.67;;;6.97;;
1475;SDS011;730;48.870;12.542;2023-08-24T01:46:03;6.93;;;6.40;;
1475;SDS011;730;48.870;12.542;2023-08-24T01:48:30;8.13;;;6.87;;
1475;SDS011;730;48.870;12.542;2023-08-24T01:50:57;6.97;;;6.47;;
1475;SDS011;730;48.870;12.542;2023-08-24T01:53:24;7.27;;;6.67;;
1475;SDS011;730;48.870;12.542;2023-08-24T01:55:51;8.27;;;7.20;;
1475;SDS011;730;48.870;12.542;2023-08-24T01:58:18;7.50;;;6.80;;
1475;SDS011;730;48.870;12.542;2023-08-24T02:00:45;7.83;;;7.13;;
1475;SDS011;730;48.870;12.542;2023-08-24T02:03:11;7.10;;;6.53;;
1475;SDS011;730;48.870;12.542;2023-08-24T02:05:37;7.20;;;6.60;;
1475;SDS011;730;48.870;12.542;2023-08-24T02:08:03;8.60;;;7.80;;
1475;SDS011;730;48.870;12.542;2023-08-24T02:10:29;8.27;;;7.57;;
1475;SDS011;730;48.870;12.542;2023-08-24T02:12:56;7.67;;;7.07;;
1475;SDS011;730;48.870;12.542;2023-08-24T02:15:22;8.10;;;7.40;;
1475;SDS011;730;48.870;12.542;2023-08-24T02:17:48;7.93;;;7.33;;
1475;SDS011;730;48.870;12.542;2023-08-24T02:20:14;8.53;;;7.73;;
1475;SDS011;730;48.870;12.542;2023-08-24T02:22:40;9.90;;;7.50;;
1475;SDS011;730;48.870;12.542;2023-08-24T02:25:06;7.33;;;6.77;;
1475;SDS011;730;48.870;12.542;2023-08-24T02:27:34;7.10;;;6.40;;
1475;SDS011;730;48.870;12.542;2023-08-24T02:30:00;7.00;;;6.50;;
1475;SDS011;730;48.870;12.542;2023-08-24T02:32:27;8.83;;;6.60;;
1475;SDS011;730;48.870;12.542;2023-08-24T02:34:53;7.43;;;6.83;;
1475;SDS011;730;48.870;12.542;2023-08-24T02:37:19;7.90;;;7.20;;
1475;SDS011;730;48.870;12.542;2023-08-24T02:39:45;9.20;;;7.57;;
1475;SDS011;730;48.870;12.542;2023-08-24T02:42:13;7.63;;;6.90;;
1475;SDS011;730;48.870;12.542;2023-08-24T02:44:39;7.97;;;7.30;;
1475;SDS011;730;48.870;12.542;2023-08-24T02:49:47;7.70;;;7.10;;
1475;SDS011;730;48.870;12.542;2023-08-24T02:52:13;8.73;;;7.13;;
1475;SDS011;730;48.870;12.542;2023-08-24T02:54:39;7.37;;;6.77;;
1475;SDS011;730;48.870;12.542;2023-08-24T02:57:05;7.40;;;6.70;;
1475;SDS011;730;48.870;12.542;2023-08-24T02:59:31;7.60;;;6.33;;
1475;SDS011;730;48.870;12.542;2023-08-24T03:01:57;7.67;;;7.00;;
1475;SDS011;730;48.870;12.542;2023-08-24T03:04:23;7.80;;;7.20;;
1475;SDS011;730;48.870;12.542;2023-08-24T03:06:49;7.67;;;7.07;;
1475;SDS011;730;48.870;12.542;2023-08-24T03:09:15;8.07;;;7.27;;
1475;SDS011;730;48.870;12.542;2023-08-24T03:11:41;7.83;;;7.23;;
1475;SDS011;730;48.870;12.542;2023-08-24T03:14:07;7.90;;;7.30;;
1475;SDS011;730;48.870;12.542;2023-08-24T03:16:33;11.93;;;7.90;;
1475;SDS011;730;48.870;12.542;2023-08-24T03:19:00;7.53;;;7.00;;
1475;SDS011;730;48.870;12.542;2023-08-24T03:21:26;8.20;;;7.50;;
1475;SDS011;730;48.870;12.542;2023-08-24T03:23:52;7.93;;;7.27;;
1475;SDS011;730;48.870;12.542;2023-08-24T03:26:18;8.70;;;7.80;;
1475;SDS011;730;48.870;12.542;2023-08-24T03:28:45;9.70;;;7.53;;
1475;SDS011;730;48.870;12.542;2023-08-24T03:31:11;8.23;;;7.43;;
1475;SDS011;730;48.870;12.542;2023-08-24T03:33:37;7.80;;;7.20;;
1475;SDS011;730;48.870;12.542;2023-08-24T03:36:03;7.40;;;6.80;;
1475;SDS011;730;48.870;12.542;2023-08-24T03:38:29;8.40;;;7.80;;
1475;SDS011;730;48.870;12.542;2023-08-24T03:41:02;8.57;;;7.80;;
1475;SDS011;730;48.870;12.542;2023-08-24T03:43:32;8.07;;;7.47;;
1475;SDS011;730;48.870;12.542;2023-08-24T03:46:00;8.50;;;7.60;;
1475;SDS011;730;48.870;12.542;2023-08-24T03:48:27;7.30;;;6.80;;
1475;SDS011;730;48.870;12.542;2023-08-24T03:50:56;8.57;;;7.70;;
1475;SDS011;730;48.870;12.542;2023-08-24T03:53:23;8.10;;;7.47;;
1475;SDS011;730;48.870;12.542;2023-08-24T03:55:50;8.53;;;7.87;;
1475;SDS011;730;48.870;12.542;2023-08-24T03:58:17;8.20;;;7.50;;
1475;SDS011;730;48.870;12.542;2023-08-24T04:00:44;9.00;;;8.10;;
1475;SDS011;730;48.870;12.542;2023-08-24T04:03:10;7.67;;;7.00;;
1475;SDS011;730;48.870;12.542;2023-08-24T04:05:36;8.87;;;8.17;;
1475;SDS011;730;48.870;12.542;2023-08-24T04:08:02;7.47;;;6.90;;
1475;SDS011;730;48.870;12.542;2023-08-24T04:10:29;8.40;;;7.80;;
1475;SDS011;730;48.870;12.542;2023-08-24T04:12:55;8.60;;;7.90;;
1475;SDS011;730;48.870;12.542;2023-08-24T04:15:21;8.47;;;7.87;;
1475;SDS011;730;48.870;12.542;2023-08-24T04:17:48;8.47;;;7.30;;
1475;SDS011;730;48.870;12.542;2023-08-24T04:20:14;8.30;;;7.63;;
1475;SDS011;730;48.870;12.542;2023-08-24T04:22:41;7.90;;;7.30;;
1475;SDS011;730;48.870;12.542;2023-08-24T04:25:08;9.10;;;8.23;;
1475;SDS011;730;48.870;12.542;2023-08-24T04:27:34;7.77;;;7.23;;
1475;SDS011;730;48.870;12.542;2023-08-24T04:30:02;8.20;;;7.50;;
1475;SDS011;730;48.870;12.542;2023-08-24T04:32:28;9.10;;;7.60;;
1475;SDS011;730;48.870;12.542;2023-08-24T04:34:54;8.40;;;7.70;;
1475;SDS011;730;48.870;12.542;2023-08-24T04:37:20;8.57;;;7.80;;
1475;SDS011;730;48.870;12.542;2023-08-24T04:39:47;8.17;;;7.47;;
1475;SDS011;730;48.870;12.542;2023-08-24T04:42:13;9.00;;;8.30;;
1475;SDS011;730;48.870;12.542;2023-08-24T04:44:39;8.70;;;8.00;;
1475;SDS011;730;48.870;12.542;2023-08-24T04:47:05;8.67;;;8.00;;
1475;SDS011;730;48.870;12.542;2023-08-24T04:49:32;8.03;;;7.43;;
1475;SDS011;730;48.870;12.542;2023-08-24T04:51:58;8.33;;;7.73;;
1475;SDS011;730;48.870;12.542;2023-08-24T04:54:24;8.80;;;7.33;;
1475;SDS011;730;48.870;12.542;2023-08-24T04:56:50;8.40;;;7.67;;
1475;SDS011;730;48.870;12.542;2023-08-24T04:59:16;8.50;;;7.80;;
1475;SDS011;730;48.870;12.542;2023-08-24T05:01:42;7.53;;;7.03;;
1475;SDS011;730;48.870;12.542;2023-08-24T05:04:08;8.10;;;7.50;;
1475;SDS011;730;48.870;12.542;2023-08-24T05:06:34;7.60;;;7.00;;
1475;SDS011;730;48.870;12.542;2023-08-24T05:09:00;8.10;;;7.47;;
1475;SDS011;730;48.870;12.542;2023-08-24T05:11:26;7.70;;;6.63;;
1475;SDS011;730;48.870;12.542;2023-08-24T05:13:55;7.97;;;7.27;;
1475;SDS011;730;48.870;12.542;2023-08-24T05:16:21;8.30;;;7.60;;
1475;SDS011;730;48.870;12.542;2023-08-24T05:18:47;8.30;;;7.53;;
1475;SDS011;730;48.870;12.542;2023-08-24T05:21:13;8.00;;;7.20;;
1475;SDS011;730;48.870;12.542;2023-08-24T05:23:40;8.00;;;7.20;;
1475;SDS011;730;48.870;12.542;2023-08-24T05:26:06;8.20;;;7.50;;
1475;SDS011;730;48.870;12.542;2023-08-24T05:28:32;7.70;;;7.00;;
1475;SDS011;730;48.870;12.542;2023-08-24T05:30:58;8.77;;;7.37;;
1475;SDS011;730;48.870;12.542;2023-08-24T05:33:25;10.13;;;7.83;;
1475;SDS011;730;48.870;12.542;2023-08-24T05:35:52;7.60;;;7.00;;
1475;SDS011;730;48.870;12.542;2023-08-24T05:38:18;7.70;;;7.10;;
1475;SDS011;730;48.870;12.542;2023-08-24T05:43:57;7.80;;;7.10;;
1475;SDS011;730;48.870;12.542;2023-08-24T05:46:23;8.10;;;6.70;;
1475;SDS011;730;48.870;12.542;2023-08-24T05:48:49;7.33;;;6.73;;
1475;SDS011;730;48.870;12.542;2023-08-24T05:51:15;7.80;;;7.10;;
1475;SDS011;730;48.870;12.542;2023-08-24T05:53:41;8.00;;;7.40;;
1475;SDS011;730;48.870;12.542;2023-08-24T05:56:07;8.43;;;7.63;;
1475;SDS011;730;48.870;12.542;2023-08-24T05:58:33;8.03;;;7.30;;
1475;SDS011;730;48.870;12.542;2023-08-24T06:00:59;7.93;;;7.33;;
1475;SDS011;730;48.870;12.542;2023-08-24T06:03:25;7.97;;;7.07;;
1475;SDS011;730;48.870;12.542;2023-08-24T06:05:52;7.90;;;7.17;;
1475;SDS011;730;48.870;12.542;2023-08-24T06:08:18;8.53;;;7.60;;
1475;SDS011;730;48.870;12.542;2023-08-24T06:10:44;6.60;;;6.10;;
1475;SDS011;730;48.870;12.542;2023-08-24T06:13:10;7.00;;;6.40;;
1475;SDS011;730;48.870;12.542;2023-08-24T06:15:36;7.47;;;6.80;;
1475;SDS011;730;48.870;12.542;2023-08-24T06:18:02;8.03;;;7.43;;
1475;SDS011;730;48.870;12.542;2023-08-24T06:20:28;6.60;;;6.10;;
1475;SDS011;730;48.870;12.542;2023-08-24T06:22:55;7.90;;;7.30;;
1475;SDS011;730;48.870;12.542;2023-08-24T06:25:21;7.23;;;6.73;;
1475;SDS011;730;48.870;12.542;2023-08-24T06:27:48;7.63;;;7.00;;
1475;SDS011;730;48.870;12.542;2023-08-24T06:30:14;6.60;;;6.00;;
1475;SDS011;730;48.870;12.542;2023-08-24T06:32:41;8.80;;;5.97;;
1475;SDS011;730;48.870;12.542;2023-08-24T06:35:07;7.43;;;6.83;;
1475;SDS011;730;48.870;12.542;2023-08-24T06:37:33;6.80;;;6.07;;
1475;SDS011;730;48.870;12.542;2023-08-24T06:39:59;6.83;;;6.23;;
1475;SDS011;730;48.870;12.542;2023-08-24T06:42:25;6.67;;;6.07;;
1475;SDS011;730;48.870;12.542;2023-08-24T06:44:51;6.13;;;5.43;;
1475;SDS011;730;48.870;12.542;2023-08-24T06:47:17;7.10;;;6.33;;
1475;SDS011;730;48.870;12.542;2023-08-24T06:49:43;9.33;;;6.40;;
1475;SDS011;730;48.870;12.542;2023-08-24T06:52:09;5.60;;;5.20;;
1475;SDS011;730;48.870;12.542;2023-08-24T06:54:35;6.97;;;5.47;;
1475;SDS011;730;48.870;12.542;2023-08-24T06:57:01;10.23;;;5.57;;
1475;SDS011;730;48.870;12.542;2023-08-24T06:59:28;5.30;;;4.90;;
1475;SDS011;730;48.870;12.542;2023-08-24T07:01:54;8.20;;;5.30;;
1475;SDS011;730;48.870;12.542;2023-08-24T07:04:20;6.20;;;5.00;;
1475;SDS011;730;48.870;12.542;2023-08-24T07:06:46;6.17;;;5.63;;
1475;SDS011;730;48.870;12.542;2023-08-24T07:09:13;5.60;;;5.10;;
1475;SDS011;730;48.870;12.542;2023-08-24T07:11:40;5.50;;;5.10;;
1475;SDS011;730;48.870;12.542;2023-08-24T07:14:06;6.70;;;5.97;;
1475;SDS011;730;48.870;12.542;2023-08-24T07:16:32;5.93;;;5.43;;
1475;SDS011;730;48.870;12.542;2023-08-24T07:18:58;5.47;;;4.60;;
1475;SDS011;730;48.870;12.542;2023-08-24T07:21:24;6.00;;;5.17;;
1475;SDS011;730;48.870;12.542;2023-08-24T07:23:51;5.23;;;4.73;;
1475;SDS011;730;48.870;12.542;2023-08-24T07:26:17;5.73;;;5.10;;
1475;SDS011;730;48.870;12.542;2023-08-24T07:28:43;5.93;;;4.17;;
1475;SDS011;730;48.870;12.542;2023-08-24T07:31:09;5.30;;;4.83;;
1475;SDS011;730;48.870;12.542;2023-08-24T07:33:36;5.83;;;4.80;;
1475;SDS011;730;48.870;12.542;2023-08-24T07:36:05;4.90;;;4.50;;
1475;SDS011;730;48.870;12.542;2023-08-24T07:38:32;5.23;;;4.20;;
1475;SDS011;730;48.870;12.542;2023-08-24T07:40:58;7.53;;;5.07;;
1475;SDS011;730;48.870;12.542;2023-08-24T07:43:24;4.50;;;4.10;;
1475;SDS011;730;48.870;12.542;2023-08-24T07:45:51;4.77;;;4.37;;
1475;SDS011;730;48.870;12.542;2023-08-24T07:48:17;6.00;;;4.63;;
1475;SDS011;730;48.870;12.542;2023-08-24T07:50:44;5.37;;;4.90;;
1475;SDS011;730;48.870;12.542;2023-08-24T07:53:10;5.53;;;5.17;;
1475;SDS011;730;48.870;12.542;2023-08-24T07:55:36;6.40;;;5.77;;
1475;SDS011;730;48.870;12.542;2023-08-24T07:58:02;5.10;;;4.60;;
1475;SDS011;730;48.870;12.542;2023-08-24T08:00:29;6.07;;;5.67;;
1475;SDS011;730;48.870;12.542;2023-08-24T08:02:55;8.77;;;6.17;;
1475;SDS011;730;48.870;12.542;2023-08-24T08:05:21;7.30;;;6.80;;
1475;SDS011;730;48.870;12.542;2023-08-24T08:07:49;6.63;;;6.13;;
1475;SDS011;730;48.870;12.542;2023-08-24T08:10:15;6.60;;;6.10;;
1475;SDS011;730;48.870;12.542;2023-08-24T08:12:42;7.57;;;6.87;;
1475;SDS011;730;48.870;12.542;2023-08-24T08:15:08;7.37;;;6.57;;
1475;SDS011;730;48.870;12.542;2023-08-24T08:17:35;6.60;;;6.10;;
1475;SDS011;730;48.870;12.542;2023-08-24T08:20:01;6.20;;;5.60;;
1475;SDS011;730;48.870;12.542;2023-08-24T08:22:28;5.50;;;5.00;;
1475;SDS011;730;48.870;12.542;2023-08-24T08:24:54;7.73;;;7.10;;
1475;SDS011;730;48.870;12.542;2023-08-24T08:27:22;6.20;;;5.70;;
1475;SDS011;730;48.870;12.542;2023-08-24T08:29:50;7.33;;;6.60;;
1475;SDS011;730;48.870;12.542;2023-08-24T08:32:16;12.43;;;6.20;;
1475;SDS011;730;48.870;12.542;2023-08-24T08:34:42;6.50;;;6.00;;
1475;SDS011;730;48.870;12.542;2023-08-24T08:37:08;5.90;;;5.50;;
1475;SDS011;730;48.870;12.542;2023-08-24T08:39:34;8.60;;;6.03;;
1475;SDS011;730;48.870;12.542;2023-08-24T08:42:00;6.13;;;5.73;;
1475;SDS011;730;48.870;12.542;2023-08-24T08:47:34;5.80;;;5.40;;
1475;SDS011;730;48.870;12.542;2023-08-24T08:50:00;5.13;;;4.67;;
1475;SDS011;730;48.870;12.542;2023-08-24T08:52:29;5.57;;;5.07;;
1475;SDS011;730;48.870;12.542;2023-08-24T08:54:55;5.50;;;5.00;;
1475;SDS011;730;48.870;12.542;2023-08-24T08:57:22;5.17;;;4.73;;
1475;SDS011;730;48.870;12.542;2023-08-24T08:59:49;6.23;;;4.97;;
1475;SDS011;730;48.870;12.542;2023-08-24T09:02:18;5.93;;;5.33;;
1475;SDS011;730;48.870;12.542;2023-08-24T09:04:45;4.93;;;4.53;;
1475;SDS011;730;48.870;12.542;2023-08-24T09:07:13;4.60;;;4.20;;
1475;SDS011;730;48.870;12.542;2023-08-24T09:09:39;5.30;;;4.87;;
1475;SDS011;730;48.870;12.542;2023-08-24T09:12:05;5.53;;;5.03;;
1475;SDS011;730;48.870;12.542;2023-08-24T09:14:35;5.47;;;4.93;;
1475;SDS011;730;48.870;12.542;2023-08-24T09:17:01;5.23;;;4.80;;
1475;SDS011;730;48.870;12.542;2023-08-24T09:19:29;4.57;;;4.17;;
1475;SDS011;730;48.870;12.542;2023-08-24T09:21:56;6.63;;;6.03;;
1475;SDS011;730;48.870;12.542;2023-08-24T09:24:30;5.30;;;4.80;;
1475;SDS011;730;48.870;12.542;2023-08-24T09:26:57;5.20;;;4.80;;
1475;SDS011;730;48.870;12.542;2023-08-24T09:29:23;5.17;;;4.77;;
1475;SDS011;730;48.870;12.542;2023-08-24T09:31:50;5.63;;;5.13;;
1475;SDS011;730;48.870;12.542;2023-08-24T09:34:19;5.60;;;5.13;;
1475;SDS011;730;48.870;12.542;2023-08-24T09:36:46;5.77;;;5.27;;
1475;SDS011;730;48.870;12.542;2023-08-24T09:39:12;7.00;;;4.80;;
1475;SDS011;730;48.870;12.542;2023-08-24T09:41:49;5.03;;;4.63;;
1475;SDS011;730;48.870;12.542;2023-08-24T09:44:18;5.20;;;4.67;;
1475;SDS011;730;48.870;12.542;2023-08-24T09:46:45;5.03;;;4.63;;
1475;SDS011;730;48.870;12.542;2023-08-24T09:49:11;5.27;;;4.77;;
1475;SDS011;730;48.870;12.542;2023-08-24T09:51:39;5.10;;;4.80;;
1475;SDS011;730;48.870;12.542;2023-08-24T09:54:08;5.20;;;4.80;;
1475;SDS011;730;48.870;12.542;2023-08-24T09:56:38;5.87;;;4.70;;
1475;SDS011;730;48.870;12.542;2023-08-24T09:59:12;5.43;;;4.57;;
1475;SDS011;730;48.870;12.542;2023-08-24T10:01:40;5.57;;;5.07;;
1475;SDS011;730;48.870;12.542;2023-08-24T10:04:09;4.97;;;4.57;;
1475;SDS011;730;48.870;12.542;2023-08-24T10:06:38;4.40;;;4.00;;
1475;SDS011;730;48.870;12.542;2023-08-24T10:09:12;5.77;;;5.00;;
1475;SDS011;730;48.870;12.542;2023-08-24T10:11:46;5.30;;;4.00;;
1475;SDS011;730;48.870;12.542;2023-08-24T10:14:27;5.10;;;4.20;;
1475;SDS011;730;48.870;12.542;2023-08-24T10:16:57;4.10;;;3.47;;
1475;SDS011;730;48.870;12.542;2023-08-24T10:19:23;5.33;;;3.30;;
1475;SDS011;730;48.870;12.542;2023-08-24T10:21:51;3.47;;;3.17;;
1475;SDS011;730;48.870;12.542;2023-08-24T10:24:19;3.50;;;3.20;;
1475;SDS011;730;48.870;12.542;2023-08-24T10:26:49;4.57;;;3.60;;
1475;SDS011;730;48.870;12.542;2023-08-24T10:29:16;4.20;;;3.77;;
1475;SDS011;730;48.870;12.542;2023-08-24T10:31:43;4.10;;;3.40;;
1475;SDS011;730;48.870;12.542;2023-08-24T10:34:10;4.00;;;3.60;;
1475;SDS011;730;48.870;12.542;2023-08-24T10:36:40;4.07;;;3.63;;
1475;SDS011;730;48.870;12.542;2023-08-24T10:39:06;3.97;;;3.43;;
1475;SDS011;730;48.870;12.542;2023-08-24T10:44:24;4.83;;;3.63;;
1475;SDS011;730;48.870;12.542;2023-08-24T10:47:18;3.87;;;3.47;;
1475;SDS011;730;48.870;12.542;2023-08-24T10:54:49;5.40;;;4.13;;
1475;SDS011;730;48.870;12.542;2023-08-24T10:57:20;3.30;;;3.10;;
1475;SDS011;730;48.870;12.542;2023-08-24T10:59:57;4.17;;;3.77;;
1475;SDS011;730;48.870;12.542;2023-08-24T11:02:47;4.30;;;3.90;;
1475;SDS011;730;48.870;12.542;2023-08-24T11:07:54;4.57;;;3.87;;
1475;SDS011;730;48.870;12.542;2023-08-24T11:10:22;7.03;;;3.93;;
1475;SDS011;730;48.870;12.542;2023-08-24T11:15:38;4.80;;;4.40;;
1475;SDS011;730;48.870;12.542;2023-08-24T11:21:01;4.13;;;3.73;;
1475;SDS011;730;48.870;12.542;2023-08-24T11:23:29;3.93;;;3.60;;
1475;SDS011;730;48.870;12.542;2023-08-24T11:25:56;4.00;;;3.70;;
1475;SDS011;730;48.870;12.542;2023-08-24T11:28:25;5.23;;;3.77;;
1475;SDS011;730;48.870;12.542;2023-08-24T11:30:56;4.07;;;3.77;;
1475;SDS011;730;48.870;12.542;2023-08-24T11:33:30;4.80;;;4.03;;
1475;SDS011;730;48.870;12.542;2023-08-24T11:35:57;3.87;;;3.57;;
1475;SDS011;730;48.870;12.542;2023-08-24T11:41:21;4.10;;;3.70;;
1475;SDS011;730;48.870;12.542;2023-08-24T11:43:48;4.60;;;4.23;;
1475;SDS011;730;48.870;12.542;2023-08-24T11:46:17;4.80;;;4.10;;
1475;SDS011;730;48.870;12.542;2023-08-24T11:48:44;5.03;;;4.33;;
1475;SDS011;730;48.870;12.542;2023-08-24T11:51:11;4.77;;;3.90;;
1475;SDS011;730;48.870;12.542;2023-08-24T11:53:39;4.20;;;3.80;;
1475;SDS011;730;48.870;12.542;2023-08-24T11:56:10;4.50;;;4.00;;
1475;SDS011;730;48.870;12.542;2023-08-24T11:58:38;4.90;;;4.33;;
1475;SDS011;730;48.870;12.542;2023-08-24T12:01:08;8.10;;;4.20;;
1475;SDS011;730;48.870;12.542;2023-08-24T12:03:36;7.53;;;4.77;;
1475;SDS011;730;48.870;12.542;2023-08-24T12:06:06;4.50;;;4.10;;
1475;SDS011;730;48.870;12.542;2023-08-24T12:08:40;4.07;;;3.70;;
1475;SDS011;730;48.870;12.542;2023-08-24T12:11:10;5.90;;;4.53;;
1475;SDS011;730;48.870;12.542;2023-08-24T12:13:42;4.97;;;4.47;;
1475;SDS011;730;48.870;12.542;2023-08-24T12:16:09;7.23;;;4.37;;
1475;SDS011;730;48.870;12.542;2023-08-24T12:18:45;5.80;;;3.80;;
1475;SDS011;730;48.870;12.542;2023-08-24T12:21:16;5.13;;;4.40;;
1475;SDS011;730;48.870;12.542;2023-08-24T12:23:42;6.30;;;4.07;;
1475;SDS011;730;48.870;12.542;2023-08-24T12:26:16;4.50;;;3.70;;
1475;SDS011;730;48.870;12.542;2023-08-24T12:28:43;4.83;;;3.70;;
1475;SDS011;730;48.870;12.542;2023-08-24T12:31:09;4.57;;;4.03;;
1475;SDS011;730;48.870;12.542;2023-08-24T12:33:39;4.20;;;3.80;;
1475;SDS011;730;48.870;12.542;2023-08-24T12:36:06;5.60;;;4.20;;
1475;SDS011;730;48.870;12.542;2023-08-24T12:38:32;4.90;;;4.50;;
1475;SDS011;730;48.870;12.542;2023-08-24T12:41:00;4.47;;;3.93;;
1475;SDS011;730;48.870;12.542;2023-08-24T12:43:26;5.07;;;4.53;;
1475;SDS011;730;48.870;12.542;2023-08-24T12:45:52;6.50;;;3.80;;
1475;SDS011;730;48.870;12.542;2023-08-24T12:48:18;7.63;;;3.93;;
1475;SDS011;730;48.870;12.542;2023-08-24T12:50:44;5.03;;;3.50;;
1475;SDS011;730;48.870;12.542;2023-08-24T12:53:10;4.43;;;4.03;;
1475;SDS011;730;48.870;12.542;2023-08-24T12:55:38;7.47;;;3.80;;
1475;SDS011;730;48.870;12.542;2023-08-24T12:58:05;4.50;;;3.97;;
1475;SDS011;730;48.870;12.542;2023-08-24T13:00:32;4.40;;;4.10;;
1475;SDS011;730;48.870;12.542;2023-08-24T13:02:58;5.60;;;3.90;;
1475;SDS011;730;48.870;12.542;2023-08-24T13:05:24;5.40;;;3.80;;
1475;SDS011;730;48.870;12.542;2023-08-24T13:07:50;3.60;;;3.30;;
1475;SDS011;730;48.870;12.542;2023-08-24T13:10:16;8.30;;;4.00;;
1475;SDS011;730;48.870;12.542;2023-08-24T13:12:42;4.00;;;3.60;;
1475;SDS011;730;48.870;12.542;2023-08-24T13:15:09;5.30;;;3.90;;
1475;SDS011;730;48.870;12.542;2023-08-24T13:17:36;4.40;;;4.00;;
1475;SDS011;730;48.870;12.542;2023-08-24T13:20:03;3.53;;;3.23;;
1475;SDS011;730;48.870;12.542;2023-08-24T13:22:29;6.10;;;3.30;;
1475;SDS011;730;48.870;12.542;2023-08-24T13:24:55;4.13;;;3.73;;
1475;SDS011;730;48.870;12.542;2023-08-24T13:27:22;5.00;;;4.50;;
1475;SDS011;730;48.870;12.542;2023-08-24T13:29:48;4.70;;;4.30;;
1475;SDS011;730;48.870;12.542;2023-08-24T13:32:14;5.07;;;4.10;;
1475;SDS011;730;48.870;12.542;2023-08-24T13:34:40;6.37;;;3.50;;
1475;SDS011;730;48.870;12.542;2023-08-24T13:37:07;6.70;;;4.30;;
1475;SDS011;730;48.870;12.542;2023-08-24T13:39:33;3.87;;;3.50;;
1475;SDS011;730;48.870;12.542;2023-08-24T13:41:59;4.97;;;4.50;;
1475;SDS011;730;48.870;12.542;2023-08-24T13:44:27;4.33;;;3.93;;
1475;SDS011;730;48.870;12.542;2023-08-24T13:46:53;4.40;;;4.00;;
1475;SDS011;730;48.870;12.542;2023-08-24T13:49:19;4.13;;;3.83;;
1475;SDS011;730;48.870;12.542;2023-08-24T13:51:45;4.60;;;4.20;;
1475;SDS011;730;48.870;12.542;2023-08-24T13:54:16;4.00;;;3.70;;
1475;SDS011;730;48.870;12.542;2023-08-24T13:56:44;3.87;;;3.43;;
1475;SDS011;730;48.870;12.542;2023-08-24T13:59:11;4.40;;;4.00;;
1475;SDS011;730;48.870;12.542;2023-08-24T14:01:38;6.43;;;4.27;;
1475;SDS011;730;48.870;12.542;2023-08-24T14:04:04;6.30;;;5.03;;
1475;SDS011;730;48.870;12.542;2023-08-24T14:06:31;4.03;;;3.63;;
1475;SDS011;730;48.870;12.542;2023-08-24T14:08:57;4.80;;;4.40;;
1475;SDS011;730;48.870;12.542;2023-08-24T14:11:23;4.67;;;4.27;;
1475;SDS011;730;48.870;12.542;2023-08-24T14:13:49;4.07;;;3.77;;
1475;SDS011;730;48.870;12.542;2023-08-24T14:16:16;6.73;;;4.97;;
1475;SDS011;730;48.870;12.542;2023-08-24T14:18:53;3.33;;;3.13;;
1475;SDS011;730;48.870;12.542;2023-08-24T14:21:19;4.23;;;3.90;;
1475;SDS011;730;48.870;12.542;2023-08-24T14:23:46;6.27;;;3.70;;
1475;SDS011;730;48.870;12.542;2023-08-24T14:26:12;6.73;;;3.90;;
1475;SDS011;730;48.870;12.542;2023-08-24T14:28:57;4.47;;;4.07;;
1475;SDS011;730;48.870;12.542;2023-08-24T14:31:24;6.27;;;4.23;;
1475;SDS011;730;48.870;12.542;2023-08-24T14:33:54;4.30;;;3.90;;
1475;SDS011;730;48.870;12.542;2023-08-24T14:36:21;4.53;;;4.13;;
1475;SDS011;730;48.870;12.542;2023-08-24T14:38:48;4.10;;;3.80;;
1475;SDS011;730;48.870;12.542;2023-08-24T14:41:15;5.13;;;3.60;;
1475;SDS011;730;48.870;12.542;2023-08-24T14:43:41;3.83;;;3.53;;
1475;SDS011;730;48.870;12.542;2023-08-24T14:46:09;4.57;;;3.70;;
1475;SDS011;730;48.870;12.542;2023-08-24T14:48:35;8.30;;;4.00;;
1475;SDS011;730;48.870;12.542;2023-08-24T14:51:01;4.30;;;3.90;;
1475;SDS011;730;48.870;12.542;2023-08-24T14:53:27;4.10;;;3.27;;
1475;SDS011;730;48.870;12.542;2023-08-24T14:55:55;5.50;;;3.30;;
1475;SDS011;730;48.870;12.542;2023-08-24T14:58:22;5.53;;;3.10;;
1475;SDS011;730;48.870;12.542;2023-08-24T15:00:52;3.83;;;3.43;;
1475;SDS011;730;48.870;12.542;2023-08-24T15:03:23;5.00;;;3.67;;
1475;SDS011;730;48.870;12.542;2023-08-24T15:05:56;4.63;;;3.37;;
1475;SDS011;730;48.870;12.542;2023-08-24T15:08:28;3.83;;;3.47;;
1475;SDS011;730;48.870;12.542;2023-08-24T15:10:54;4.10;;;3.80;;
1475;SDS011;730;48.870;12.542;2023-08-24T15:13:22;3.30;;;3.10;;
1475;SDS011;730;48.870;12.542;2023-08-24T15:15:54;4.73;;;3.40;;
1475;SDS011;730;48.870;12.542;2023-08-24T15:18:22;3.80;;;3.50;;
1475;SDS011;730;48.870;12.542;2023-08-24T15:20:49;3.30;;;3.00;;
1475;SDS011;730;48.870;12.542;2023-08-24T15:23:27;4.20;;;3.80;;
1475;SDS011;730;48.870;12.542;2023-08-24T15:25:54;3.67;;;3.37;;
1475;SDS011;730;48.870;12.542;2023-08-24T15:28:21;4.30;;;3.03;;
1475;SDS011;730;48.870;12.542;2023-08-24T15:30:48;4.03;;;3.40;;
1475;SDS011;730;48.870;12.542;2023-08-24T15:33:14;6.00;;;3.67;;
1475;SDS011;730;48.870;12.542;2023-08-24T15:35:41;3.67;;;3.37;;
1475;SDS011;730;48.870;12.542;2023-08-24T15:38:08;3.40;;;3.10;;
1475;SDS011;730;48.870;12.542;2023-08-24T15:40:34;3.70;;;3.40;;
1475;SDS011;730;48.870;12.542;2023-08-24T15:43:01;4.00;;;3.57;;
1475;SDS011;730;48.870;12.542;2023-08-24T15:45:28;3.90;;;3.60;;
1475;SDS011;730;48.870;12.542;2023-08-24T15:47:58;6.83;;;4.60;;
1475;SDS011;730;48.870;12.542;2023-08-24T15:50:25;3.50;;;3.20;;